25 septembre 2022

Temps Code Temps Temp. Vue Base cloud Vent METAR/SPECI
23:00
V
13 °C 10 km+ - 320° 320° 3 kt METAR LFOZ 252100Z AUTO 32003KT CAVOK 13/08 Q1016
22:30
V
13 °C 10 km+ - 340° 340° 4 kt METAR LFOZ 252030Z AUTO 34004KT CAVOK 13/08 Q1016
22:00
V
13 °C 10 km+ - 330° 330° 3 kt METAR LFOZ 252000Z AUTO 33003KT CAVOK 13/08 Q1016
21:30
V
13 °C 10 km+ - 330° 330° 4 kt METAR LFOZ 251930Z AUTO 33004KT CAVOK 13/07 Q1016
21:00
V
13 °C 10 km+ - 340° 340° 4 kt METAR LFOZ 251900Z AUTO 34004KT CAVOK 13/06 Q1016
20:30
V
12 °C 10 km+ - 340° 340° 5 kt METAR LFOZ 251830Z AUTO 34005KT 310V030 CAVOK 12/06 Q1016
20:00
V
14 °C 10 km+ - 340° 340° 3 kt METAR LFOZ 251800Z AUTO 34003KT CAVOK 14/07 Q1015
19:30
V
16 °C 10 km+ - Var Var 3 kt METAR LFOZ 251730Z AUTO VRB03KT CAVOK 16/05 Q1015
19:00
V
18 °C 10 km+ - Var Var 3 kt METAR LFOZ 251700Z AUTO VRB03KT CAVOK 18/05 Q1015
18:30
V
18 °C 10 km+ - 330° 330° 4 kt METAR LFOZ 251630Z AUTO 33004KT CAVOK 18/05 Q1015
18:00
V
18 °C 10 km+ - 360° 360° 6 kt METAR LFOZ 251600Z AUTO 36006KT 320V040 CAVOK 18/05 Q1015
17:30
V
18 °C 10 km+ - 030° 030° 7 kt METAR LFOZ 251530Z AUTO 03007KT 350V060 CAVOK 18/05 Q1015
17:00
V
19 °C 10 km+ - 050° 050° 8 kt METAR LFOZ 251500Z AUTO 05008KT 360V100 CAVOK 19/05 Q1015
16:30
V
19 °C 10 km+ - 360° 360° 8 kt METAR LFOZ 251430Z AUTO 36008KT 320V040 9999 FEW044 19/05 Q1015
16:00
V
19 °C 10 km+ - 050° 050° 6 kt METAR LFOZ 251400Z AUTO 05006KT 320V100 9999 FEW045 19/07 Q1016
15:30
V
18 °C 10 km+ 7.000 ft 030° 030° 4 kt METAR LFOZ 251330Z AUTO 03004KT 340V110 9999 FEW033 SCT058 BKN070 18/09 Q1016
15:00
V
17 °C 10 km+ 3.700 ft 360° 360° 5 kt METAR LFOZ 251300Z AUTO 36005KT 280V040 9999 SCT031 BKN037 17/09 Q1016
14:30
V
17 °C 10 km+ - 080° 080° 6 kt METAR LFOZ 251230Z AUTO 08006KT 350V120 9999 FEW024 SCT031 17/10 Q1016
14:00
M
16 °C 10 km+ 2.500 ft 040° 040° 5 kt METAR LFOZ 251200Z AUTO 04005KT 360V070 9999 OVC025 16/10 Q1016
13:30
M
15 °C 10 km+ 2.000 ft 350° 350° 7 kt METAR LFOZ 251130Z AUTO 35007KT 310V020 9999 BKN020 OVC026 15/10 Q1016
13:00
M
15 °C 10 km+ 2.100 ft 360° 360° 7 kt METAR LFOZ 251100Z AUTO 36007KT 9999 BKN021 OVC027 15/10 Q1016
12:30
M
15 °C 10 km+ 1.800 ft 010° 010° 7 kt METAR LFOZ 251030Z AUTO 01007KT 9999 BKN018 BKN024 OVC029 15/10 Q1016
12:00
M
15 °C 10 km+ 1.800 ft 020° 020° 6 kt METAR LFOZ 251000Z AUTO 02006KT 340V070 9999 BKN018 BKN025 OVC033 15/11 Q1016
11:30
M
14 °C 10 km+ 1.600 ft 030° 030° 6 kt METAR LFOZ 250930Z AUTO 03006KT 360V060 9999 OVC016 14/10 Q1016
11:00
M
14 °C 10 km+ 1.400 ft 020° 020° 6 kt METAR LFOZ 250900Z AUTO 02006KT 340V050 9999 OVC014 14/11 Q1016
10:30
M
14 °C 10 km+ 1.300 ft 010° 010° 6 kt METAR LFOZ 250830Z AUTO 01006KT 340V050 9999 OVC013 14/11 Q1016
10:00
M
13 °C 10 km+ 1.100 ft 010° 010° 5 kt METAR LFOZ 250800Z AUTO 01005KT 9999 BKN011 OVC021 13/11 Q1015
09:30
M
13 °C 10 km+ 1.100 ft 360° 360° 5 kt METAR LFOZ 250730Z AUTO 36005KT 320V040 9999 OVC011 13/11 Q1015
09:00
M
12 °C 10 km+ 1.200 ft 360° 360° 5 kt METAR LFOZ 250700Z AUTO 36005KT 9999 OVC012 12/11 Q1015
08:30
V
12 °C 10 km+ 3.500 ft 360° 360° 4 kt METAR LFOZ 250630Z AUTO 36004KT 9999 SCT013 OVC035 12/11 Q1015
08:00
V
12 °C 10 km+ 3.000 ft 360° 360° 4 kt METAR LFOZ 250600Z AUTO 36004KT 330V030 9999 SCT013 BKN030 OVC035 12/10 Q1015
07:30
M
12 °C 10 km+ 2.700 ft 360° 360° 4 kt METAR LFOZ 250530Z AUTO 36004KT 9999 OVC027 12/11 Q1015
07:00
M
12 °C 10 km+ 2.500 ft 360° 360° 4 kt METAR LFOZ 250500Z AUTO 36004KT 9999 OVC025 12/11 Q1015
06:30
M
12 °C 10 km+ 1.900 ft 360° 360° 3 kt METAR LFOZ 250430Z AUTO 36003KT 9999 BKN019 OVC025 12/11 Q1015
06:00
M
11 °C 10 km+ 2.100 ft 360° 360° 4 kt METAR LFOZ 250400Z AUTO 36004KT 9999 OVC021 11/11 Q1014
05:30
M
11 °C 10 km+ 1.900 ft 360° 360° 4 kt METAR LFOZ 250330Z AUTO 36004KT 9999 OVC019 11/11 Q1014
05:00
M
11 °C 10 km+ 1.700 ft 360° 360° 3 kt METAR LFOZ 250300Z AUTO 36003KT 9999 OVC017 11/10 Q1014
04:30
M
10 °C 6 km 1.600 ft Var Var 2 kt METAR LFOZ 250230Z AUTO VRB02KT 6000 BKN016 OVC038 10/10 Q1014
04:00
V
10 °C 8 km - Var Var 1 kt METAR LFOZ 250200Z AUTO VRB01KT 8000 NSC 10/09 Q1014
03:30
L
10 °C 800 m 7.600 ft Var Var 2 kt METAR LFOZ 250130Z AUTO VRB02KT 0800 R23/1400U FG FEW002 BKN076 10/09 Q1014
03:00
L
11 °C 1,4 km - 010° 010° 2 kt METAR LFOZ 250100Z AUTO 01002KT 7000 1400 R23/P2000 NSC 11/10 Q1014
02:30
V
11 °C 8 km - 010° 010° 4 kt METAR LFOZ 250030Z AUTO 01004KT 8000 FEW047 11/10 Q1014
02:00
V
11 °C 10 km+ 4.600 ft 020° 020° 4 kt METAR LFOZ 250000Z AUTO 02004KT 9999 BKN046 11/11 Q1014
01:30
V
12 °C 10 km+ 7.000 ft 010° 010° 5 kt METAR LFOZ 242330Z AUTO 01005KT 9999 FEW043 BKN070 12/11 Q1014
01:00
V
12 °C 10 km+ 4.200 ft 350° 350° 3 kt METAR LFOZ 242300Z AUTO 35003KT 9999 BKN042 OVC068 12/12 Q1014
00:30
V
12 °C 8 km 4.100 ft Var Var 2 kt METAR LFOZ 242230Z AUTO VRB02KT 8000 BKN041 BKN068 12/11 Q1014
00:00
V
12 °C 9 km - 340° 340° 3 kt METAR LFOZ 242200Z AUTO 34003KT 9000 NSC 12/11 Q1014

24 septembre 2022

Temps Code Temps Temp. Vue Base cloud Vent METAR/SPECI
23:30
V
12 °C 10 km+ - 310° 310° 2 kt METAR LFOZ 242130Z AUTO 31002KT CAVOK 12/11 Q1014
23:00
V
12 °C 10 km+ - 340° 340° 4 kt METAR LFOZ 242100Z AUTO 34004KT CAVOK 12/11 Q1014
22:30
V
12 °C 10 km+ - 330° 330° 4 kt METAR LFOZ 242030Z AUTO 33004KT 9999 ///TCU 12/11 Q1014
22:00
V
12 °C 10 km+ - 360° 360° 3 kt METAR LFOZ 242000Z AUTO 36003KT CAVOK 12/11 Q1014
21:30
V
13 °C 10 km+ - 340° 340° 2 kt METAR LFOZ 241930Z AUTO 34002KT CAVOK 13/11 Q1014
21:00
V
14 °C 10 km+ - Var Var 2 kt METAR LFOZ 241900Z AUTO VRB02KT 9999 ///CB 14/12 Q1014
20:30
V
14 °C 10 km+ 23.000 ft 010° 010° 5 kt METAR LFOZ 241830Z AUTO 01005KT 9999 SCT031/// BKN230/// ///CB 14/12 Q1014
20:00
M
15 °C 10 km+ 2.900 ft 030° 030° 4 kt METAR LFOZ 241800Z AUTO 03004KT 360V060 9999 BKN029/// BKN240/// ///CB 15/12 Q1013
19:30
V
15 °C 10 km+ - 020° 020° 4 kt METAR LFOZ 241730Z AUTO 02004KT 9999 ///TCU 15/12 Q1013
19:00
M
16 °C 10 km+ 1.700 ft 010° 010° 6 kt METAR LFOZ 241700Z AUTO 01006KT 350V050 9999 BKN017/// BKN023/// BKN042/// ///CB 16/13 Q1013
18:30
V
17 °C 10 km+ 5.200 ft 040° 040° 7 kt METAR LFOZ 241630Z AUTO 04007KT 010V070 9999 FEW021/// SCT035/// BKN052/// ///CB 17/12 Q1012
18:00
V
18 °C 10 km+ - 360° 360° 4 kt METAR LFOZ 241600Z AUTO 36004KT 9999 FEW035 SCT054 18/10 Q1012
17:30
V
19 °C 10 km+ 5.200 ft 320° 320° 4 kt METAR LFOZ 241530Z AUTO 32004KT 280V350 9999 FEW034 BKN052 19/11 Q1012
17:00
V
19 °C 10 km+ 3.100 ft 320° 320° 5 kt METAR LFOZ 241500Z AUTO 32005KT 290V350 9999 BKN031 BKN037 BKN047 19/12 Q1012
16:30
V
19 °C 10 km+ 8.200 ft 330° 330° 5 kt METAR LFOZ 241430Z AUTO 33005KT 290V020 9999 FEW037 SCT047 BKN082 19/11 Q1012
16:00
V
19 °C 10 km+ 4.100 ft 290° 290° 6 kt METAR LFOZ 241400Z AUTO 29006KT 240V360 9999 SCT034 BKN041 BKN049 19/11 Q1012
15:30
M
19 °C 10 km+ 2.800 ft 310° 310° 4 kt METAR LFOZ 241330Z AUTO 31004KT 250V360 9999 BKN028 BKN036 BKN047 19/12 Q1013
15:00
V
18 °C 10 km+ 3.300 ft 300° 300° 6 kt METAR LFOZ 241300Z AUTO 30006KT 260V340 9999 SCT027 BKN033 BKN040 18/12 Q1013
14:30
V
18 °C 10 km+ 4.400 ft 270° 270° 5 kt METAR LFOZ 241230Z AUTO 27005KT 210V330 9999 SCT027 SCT035 OVC044 18/11 Q1013
14:00
V
18 °C 10 km+ 4.300 ft 280° 280° 7 kt METAR LFOZ 241200Z AUTO 28007KT 250V330 9999 SCT028/// SCT033/// OVC043/// ///TCU 18/11 Q1013
13:30
V
17 °C 10 km+ 3.200 ft 270° 270° 6 kt METAR LFOZ 241130Z AUTO 27006KT 240V300 9999 BKN032 OVC040 17/11 Q1013
13:00
V
17 °C 10 km+ 3.000 ft 240° 240° 4 kt METAR LFOZ 241100Z AUTO 24004KT 190V280 9999 BKN030/// BKN037/// OVC045/// ///TCU 17/11 Q1013
12:30
M
18 °C 10 km+ 2.700 ft 220° 220° 6 kt METAR LFOZ 241030Z AUTO 22006KT 170V260 9999 BKN027 OVC033 18/11 Q1013
12:00
M
18 °C 10 km+ 2.300 ft 260° 260° 3 kt METAR LFOZ 241000Z AUTO 26003KT 180V340 9999 BKN023 BKN032 OVC056 18/11 Q1013
11:30
M
16 °C 10 km+ 2.000 ft 230° 230° 3 kt METAR LFOZ 240930Z AUTO 23003KT 130V290 9999 BKN020 BKN062 OVC088 16/11 Q1014
11:00
M
16 °C 10 km+ 1.900 ft Var Var 2 kt METAR LFOZ 240900Z AUTO VRB02KT 9999 BKN019 OVC082 16/11 Q1014
10:30
M
14 °C 10 km+ 2.100 ft Var Var 2 kt METAR LFOZ 240830Z AUTO VRB02KT 9999 BKN021 BKN066 OVC140 14/11 Q1014
10:00
V
14 °C 10 km+ 7.200 ft Var 000° 0 kt METAR LFOZ 240800Z AUTO 00000KT 9999 FEW020 BKN072 OVC120 14/11 Q1013
09:30
V
13 °C 10 km+ - Var 000° 0 kt METAR LFOZ 240730Z AUTO 00000KT CAVOK 13/11 Q1013
09:00
V
12 °C 10 km+ - Var 000° 0 kt METAR LFOZ 240700Z AUTO 00000KT CAVOK 12/11 Q1013
08:30
V
12 °C 10 km+ - Var 000° 0 kt METAR LFOZ 240630Z AUTO 00000KT CAVOK 12/11 Q1013
08:00
V
11 °C 10 km+ - 120° 120° 1 kt METAR LFOZ 240600Z AUTO 12001KT 9999 -RA NSC 11/11 Q1013
07:30
V
12 °C 10 km+ - Var 000° 0 kt METAR LFOZ 240530Z AUTO 00000KT 9999 -RA NSC 12/11 Q1013
07:00
V
12 °C 10 km+ - Var 000° 0 kt METAR LFOZ 240500Z AUTO 00000KT CAVOK 12/10 Q1013
06:30
V
12 °C 10 km+ - 230° 230° 1 kt METAR LFOZ 240430Z AUTO 23001KT CAVOK 12/10 Q1013
06:00
V
12 °C 10 km+ - Var Var 2 kt METAR LFOZ 240400Z AUTO VRB02KT 9999 -RA NSC 12/10 Q1013
05:30
V
12 °C 10 km+ - 290° 290° 2 kt METAR LFOZ 240330Z AUTO 29002KT CAVOK 12/10 Q1013
05:00
V
12 °C 10 km+ - 280° 280° 1 kt METAR LFOZ 240300Z AUTO 28001KT CAVOK 12/10 Q1013
04:30
V
12 °C 10 km+ - Var Var 2 kt METAR LFOZ 240230Z AUTO VRB02KT CAVOK 12/10 Q1013
04:00
V
12 °C 10 km+ - 330° 330° 1 kt METAR LFOZ 240200Z AUTO 33001KT CAVOK 12/10 Q1013
03:30
V
12 °C 10 km+ - Var 000° 0 kt METAR LFOZ 240130Z AUTO 00000KT CAVOK 12/09 Q1013
03:00
V
13 °C 10 km+ - Var 000° 0 kt METAR LFOZ 240100Z AUTO 00000KT CAVOK 13/09 Q1014
02:30
V
13 °C 10 km+ - Var 000° 0 kt METAR LFOZ 240030Z AUTO 00000KT CAVOK 13/10 Q1014
02:00
V
13 °C 10 km+ - Var 000° 0 kt METAR LFOZ 240000Z AUTO 00000KT CAVOK 13/09 Q1014
01:30
V
14 °C 10 km+ - 300° 300° 2 kt METAR LFOZ 232330Z AUTO 30002KT CAVOK 14/09 Q1014
01:00
V
15 °C 10 km+ - Var Var 2 kt METAR LFOZ 232300Z AUTO VRB02KT CAVOK 15/09 Q1014
00:30
V
16 °C 10 km+ - 330° 330° 6 kt METAR LFOZ 232230Z AUTO 33006KT 300V360 CAVOK 16/09 Q1014
00:00
V
16 °C 10 km+ - 330° 330° 6 kt METAR LFOZ 232200Z AUTO 33006KT CAVOK 16/08 Q1014

23 septembre 2022

Temps Code Temps Temp. Vue Base cloud Vent METAR/SPECI
23:30
V
15 °C 10 km+ - 310° 310° 5 kt METAR LFOZ 232130Z AUTO 31005KT CAVOK 15/08 Q1014
23:00
V
14 °C 10 km+ - Var 000° 0 kt METAR LFOZ 232100Z AUTO 00000KT CAVOK 14/09 Q1014
22:30
V
14 °C 10 km+ - Var Var 1 kt METAR LFOZ 232030Z AUTO VRB01KT CAVOK 14/10 Q1014
22:00
V
14 °C 10 km+ - Var 000° 0 kt METAR LFOZ 232000Z AUTO 00000KT CAVOK 14/09 Q1014
21:30
V
15 °C 10 km+ - Var 000° 0 kt METAR LFOZ 231930Z AUTO 00000KT CAVOK 15/09 Q1014
21:00
V
15 °C 10 km+ - 310° 310° 1 kt METAR LFOZ 231900Z AUTO 31001KT CAVOK 15/09 Q1014
20:30
V
16 °C 10 km+ - Var 000° 0 kt METAR LFOZ 231830Z AUTO 00000KT CAVOK 16/09 Q1014
20:00
V
17 °C 10 km+ - 100° 100° 1 kt METAR LFOZ 231800Z AUTO 10001KT CAVOK 17/08 Q1014
19:30
V
18 °C 10 km+ - Var Var 2 kt METAR LFOZ 231730Z AUTO VRB02KT CAVOK 18/09 Q1014
19:00
V
19 °C 10 km+ - 110° 110° 2 kt METAR LFOZ 231700Z AUTO 11002KT CAVOK 19/08 Q1014
18:30
V
20 °C 10 km+ - 090° 090° 3 kt METAR LFOZ 231630Z AUTO 09003KT CAVOK 20/07 Q1014
18:00
V
21 °C 10 km+ - Var Var 2 kt METAR LFOZ 231600Z AUTO VRB02KT CAVOK 21/07 Q1015
17:30
V
20 °C 10 km+ - 110° 110° 4 kt METAR LFOZ 231530Z AUTO 11004KT 050V130 CAVOK 20/07 Q1015
17:00
V
21 °C 10 km+ - Var Var 2 kt METAR LFOZ 231500Z AUTO VRB02KT CAVOK 21/07 Q1015
Données plus anciennes

Nous et des tiers suivons ton comportement sur Internet sur notre site Web à l'aide de cookies. Si tu continues, nous supposons que tu acceptes notre politique en matière de cookies. Apprendre plus